Time;durP1;ratioP1;P1;durP2;ratioP2;P2;SDS_P1;SDS_P2;PMS_P1;PMS_P2;Temp;Humidity;BMP_temperature;BMP_pressure;BME280_temperature;BME280_humidity;BME280_pressure;Samples;Min_cycle;Max_cycle;Signal;HPM_P1;HPM_P2
2024/02/11 00:00:14;;;;;;;;;;;;;;;;;;5012959;28;19988;-90
2024/02/11 00:02:39;;;;;;;;;;;;;;;;;;5022043;28;19909;-91
2024/02/11 00:05:04;;;;;;;;;;;;;;;;;;5021482;28;19909;-89
2024/02/11 00:07:29;;;;;;;;;;;;;;;;;;5022287;28;19913;-92
2024/02/11 00:09:54;;;;;;;;;;;;;;;;;;5018246;28;19924;-88
2024/02/11 00:12:19;;;;;;;;;;;;;;;;;;5021180;28;19909;-89
2024/02/11 00:14:45;;;;;;;;;;;;;;;;;;5011904;28;20346;-84
2024/02/11 00:17:10;;;;;;;;;;;;;;;;;;5017112;28;19908;-82
2024/02/11 00:19:35;;;;;;;;;;;;;;;;;;5014333;28;19979;-82
2024/02/11 00:22:01;;;;;;;;;;;;;;;;;;5010715;28;19999;-82
2024/02/11 00:24:29;;;;;;;;;;;;;;;;;;5035076;28;20381;-82
2024/02/11 00:26:54;;;;;;;;;;;;;;;;;;5035514;28;19925;-82
2024/02/11 00:29:20;;;;;;;;;;;;;;;;;;5032800;28;19913;-82
2024/02/11 00:31:45;;;;;;;;;;;;;;;;;;5030404;28;19963;-82
2024/02/11 00:34:10;;;;;;;;;;;;;;;;;;5030760;28;19974;-82
2024/02/11 00:36:36;;;;;;;;;;;;;;;;;;5029613;28;19959;-83
2024/02/11 00:39:01;;;;;;;;;;;;;;;;;;5023249;28;20015;-83
2024/02/11 00:41:28;;;;;;;;;;;;;;;;;;5027906;28;19972;-82
2024/02/11 00:43:53;;;;;;;;;;;;;;;;;;5004372;28;19909;-82
2024/02/11 00:46:18;;;;;;;;;;;;;;;;;;5027331;28;19917;-82
2024/02/11 00:48:46;;;;;;;;;;;;;;;;;;5024382;28;20020;-82
2024/02/11 00:51:12;;;;;;;;;;;;;;;;;;5031842;28;19909;-82
2024/02/11 00:53:37;;;;;;;;;;;;;;;;;;5030718;28;19959;-82
2024/02/11 00:56:02;;;;;;;;;;;;;;;;;;5034914;28;19916;-83
2024/02/11 00:58:27;;;;;;;;;;;;;;;;;;5036775;28;19912;-83
2024/02/11 01:00:52;;;;;;;;;;;;;;;;;;5032178;28;20332;-82
2024/02/11 01:03:17;;;;;;;;;;;;;;;;;;5038375;28;19919;-82
2024/02/11 01:05:43;;;;;;;;;;;;;;;;;;5037761;28;19964;-82
2024/02/11 01:08:08;;;;;;;;;;;;;;;;;;5035926;28;19910;-80
2024/02/11 01:10:33;;;;;;;;;;;;;;;;;;5033394;28;19909;-81
2024/02/11 01:12:58;;;;;;;;;;;;;;;;;;5035282;28;20008;-81
2024/02/11 01:15:26;;;;;;;;;;;;;;;;;;5037046;28;20296;-80
2024/02/11 01:17:52;;;;;;;;;;;;;;;;;;5034499;28;20048;-80
2024/02/11 01:20:17;;;;;;;;;;;;;;;;;;5030236;28;19999;-83
2024/02/11 01:22:43;;;;;;;;;;;;;;;;;;5033379;28;19978;-82
2024/02/11 01:25:09;;;;;;;;;;;;;;;;;;5029393;28;19939;-82
2024/02/11 01:27:34;;;;;;;;;;;;;;;;;;5029207;28;19917;-82
2024/02/11 01:29:59;;;;;;;;;;;;;;;;;;5029445;28;19908;-82
2024/02/11 01:32:24;;;;;;;;;;;;;;;;;;5029652;28;20012;-82
2024/02/11 01:34:49;;;;;;;;;;;;;;;;;;5026337;28;19913;-82
2024/02/11 01:37:15;;;;;;;;;;;;;;;;;;5029886;28;19909;-83
2024/02/11 01:39:40;;;;;;;;;;;;;;;;;;5029712;28;19905;-82
2024/02/11 01:42:05;;;;;;;;;;;;;;;;;;5029758;28;20285;-84
2024/02/11 01:44:30;;;;;;;;;;;;;;;;;;5028574;28;20431;-82
2024/02/11 01:46:55;;;;;;;;;;;;;;;;;;5025851;28;20388;-82
2024/02/11 01:49:22;;;;;;;;;;;;;;;;;;5029650;28;20293;-82
2024/02/11 01:51:47;;;;;;;;;;;;;;;;;;5030094;28;19905;-82
2024/02/11 01:54:12;;;;;;;;;;;;;;;;;;5029009;28;19909;-82
2024/02/11 01:56:38;;;;;;;;;;;;;;;;;;5014989;28;19909;-82
2024/02/11 01:59:03;;;;;;;;;;;;;;;;;;5025798;28;20003;-82
2024/02/11 02:01:29;;;;;;;;;;;;;;;;;;5029555;28;19909;-89
2024/02/11 02:03:54;;;;;;;;;;;;;;;;;;5030105;28;19908;-89
2024/02/11 02:06:19;;;;;;;;;;;;;;;;;;5028563;28;20336;-90
2024/02/11 02:08:45;;;;;;;;;;;;;;;;;;5026110;28;19931;-88
2024/02/11 02:11:10;;;;;;;;;;;;;;;;;;5022996;28;19913;-90
2024/02/11 02:13:35;;;;;;;;;;;;;;;;;;5032487;28;19905;-88
2024/02/11 02:16:00;;;;;;;;;;;;;;;;;;5047075;28;19901;-86
2024/02/11 02:18:26;;;;;;;;;;;;;;;;;;5047449;28;19961;-85
2024/02/11 02:20:51;;;;;;;;;;;;;;;;;;5037197;28;19905;-87
2024/02/11 02:23:17;;;;;;;;;;;;;;;;;;5045380;28;19921;-86
2024/02/11 02:25:42;;;;;;;;;;;;;;;;;;5054740;28;19933;-85
2024/02/11 02:28:07;;;;;;;;;;;;;;;;;;5052015;28;19917;-88
2024/02/11 02:30:33;;;;;;;;;;;;;;;;;;5041984;28;20019;-85
2024/02/11 02:32:58;;;;;;;;;;;;;;;;;;5032966;28;19917;-90
2024/02/11 02:35:23;;;;;;;;;;;;;;;;;;5023637;28;19907;-88
2024/02/11 02:37:48;;;;;;;;;;;;;;;;;;5041512;28;19923;-89
2024/02/11 02:40:13;;;;;;;;;;;;;;;;;;5031639;28;19916;-88
2024/02/11 02:42:38;;;;;;;;;;;;;;;;;;5014265;28;19913;-88
2024/02/11 02:45:04;;;;;;;;;;;;;;;;;;5028775;28;19916;-89
2024/02/11 02:47:29;;;;;;;;;;;;;;;;;;5034709;28;19925;-88
2024/02/11 02:49:54;;;;;;;;;;;;;;;;;;5029545;28;19913;-90
2024/02/11 02:52:19;;;;;;;;;;;;;;;;;;5027794;28;20391;-90
2024/02/11 02:54:44;;;;;;;;;;;;;;;;;;5027480;28;19916;-90
2024/02/11 02:57:10;;;;;;;;;;;;;;;;;;5023137;28;19916;-89
2024/02/11 02:59:35;;;;;;;;;;;;;;;;;;5033249;28;19974;-87
2024/02/11 03:02:04;;;;;;;;;;;;;;;;;;5033530;28;19917;-89
2024/02/11 03:04:29;;;;;;;;;;;;;;;;;;5020487;28;20369;-81
2024/02/11 03:06:57;;;;;;;;;;;;;;;;;;5023937;28;19924;-81
2024/02/11 03:09:22;;;;;;;;;;;;;;;;;;5031977;28;20419;-81
2024/02/11 03:11:49;;;;;;;;;;;;;;;;;;5031037;28;19917;-81
2024/02/11 03:14:14;;;;;;;;;;;;;;;;;;5022275;28;20495;-81
2024/02/11 03:16:40;;;;;;;;;;;;;;;;;;5027485;28;19910;-81
2024/02/11 03:19:05;;;;;;;;;;;;;;;;;;5007838;28;19959;-82
2024/02/11 03:21:30;;;;;;;;;;;;;;;;;;5020591;28;19909;-81
2024/02/11 03:23:55;;;;;;;;;;;;;;;;;;5025550;28;19956;-81
2024/02/11 03:26:21;;;;;;;;;;;;;;;;;;5028496;28;20000;-82
2024/02/11 03:28:48;;;;;;;;;;;;;;;;;;5029853;28;19921;-81
2024/02/11 03:31:13;;;;;;;;;;;;;;;;;;5021517;28;19944;-81
2024/02/11 03:33:39;;;;;;;;;;;;;;;;;;5033861;28;19909;-81
2024/02/11 03:36:04;;;;;;;;;;;;;;;;;;5031247;28;19924;-81
2024/02/11 03:38:29;;;;;;;;;;;;;;;;;;5016716;28;19956;-81
2024/02/11 03:40:54;;;;;;;;;;;;;;;;;;5027963;28;19909;-81
2024/02/11 03:43:19;;;;;;;;;;;;;;;;;;5031907;28;20377;-81
2024/02/11 03:45:44;;;;;;;;;;;;;;;;;;5029836;28;19913;-90
2024/02/11 03:48:12;;;;;;;;;;;;;;;;;;5031188;28;19940;-91
2024/02/11 03:50:38;;;;;;;;;;;;;;;;;;5032635;28;19908;-89
2024/02/11 03:53:04;;;;;;;;;;;;;;;;;;5024774;28;19951;-90
2024/02/11 03:55:29;;;;;;;;;;;;;;;;;;5041100;28;20345;-90
2024/02/11 03:57:54;;;;;;;;;;;;;;;;;;5034494;28;19909;-90
2024/02/11 04:00:25;;;;;;;;;;;;;;;;;;5031525;28;19973;-90
2024/02/11 04:02:52;;;;;;;;;;;;;;;;;;5029562;28;19909;-89
2024/02/11 04:05:20;;;;;;;;;;;;;;;;;;5031890;28;19947;-90
2024/02/11 04:07:45;;;;;;;;;;;;;;;;;;5029803;28;19921;-86
2024/02/11 04:10:17;;;;;;;;;;;;;;;;;;5033906;28;19920;-91
2024/02/11 04:12:43;;;;;;;;;;;;;;;;;;5040419;28;20336;-88
2024/02/11 04:15:09;;;;;;;;;;;;;;;;;;5028109;28;20262;-89
2024/02/11 04:17:36;;;;;;;;;;;;;;;;;;5025349;28;19916;-88
2024/02/11 04:20:01;;;;;;;;;;;;;;;;;;5008957;28;19909;-90
2024/02/11 04:22:27;;;;;;;;;;;;;;;;;;5033250;28;20280;-89
2024/02/11 04:24:54;;;;;;;;;;;;;;;;;;4996481;28;19920;-90
2024/02/11 04:27:20;;;;;;;;;;;;;;;;;;5011566;28;19920;-90
2024/02/11 04:29:47;;;;;;;;;;;;;;;;;;5009204;28;19913;-90
2024/02/11 04:32:14;;;;;;;;;;;;;;;;;;5010670;28;20288;-89
2024/02/11 04:34:42;;;;;;;;;;;;;;;;;;5010547;28;19917;-90
2024/02/11 04:37:07;;;;;;;;;;;;;;;;;;5010025;28;19917;-90
2024/02/11 04:39:32;;;;;;;;;;;;;;;;;;5011104;28;19910;-88
2024/02/11 04:41:57;;;;;;;;;;;;;;;;;;5006044;28;19910;-90
2024/02/11 04:44:26;;;;;;;;;;;;;;;;;;5012114;28;20236;-90
2024/02/11 04:46:51;;;;;;;;;;;;;;;;;;5006377;28;19913;-88
2024/02/11 04:49:16;;;;;;;;;;;;;;;;;;5012558;28;19916;-90
2024/02/11 04:51:41;;;;;;;;;;;;;;;;;;4987478;28;19971;-89
2024/02/11 04:54:07;;;;;;;;;;;;;;;;;;5012043;28;19917;-89
2024/02/11 04:56:32;;;;;;;;;;;;;;;;;;5012279;28;19917;-90
2024/02/11 04:59:01;;;;;;;;;;;;;;;;;;5005311;28;19913;-90
2024/02/11 05:01:27;;;;;;;;;;;;;;;;;;5011034;28;19992;-88
2024/02/11 05:03:52;;;;;;;;;;;;;;;;;;5010784;28;20336;-89
2024/02/11 05:06:23;;;;;;;;;;;;;;;;;;5010603;28;20043;-89
2024/02/11 05:08:48;;;;;;;;;;;;;;;;;;5003166;28;19994;-90
2024/02/11 05:11:13;;;;;;;;;;;;;;;;;;5005160;28;20301;-90
2024/02/11 05:13:39;;;;;;;;;;;;;;;;;;5007560;28;19918;-89
2024/02/11 05:16:05;;;;;;;;;;;;;;;;;;5003065;28;19913;-90
2024/02/11 05:18:32;;;;;;;;;;;;;;;;;;5009569;28;20385;-90
2024/02/11 05:20:57;;;;;;;;;;;;;;;;;;5009933;28;19959;-90
2024/02/11 05:23:23;;;;;;;;;;;;;;;;;;5009129;28;20373;-91
2024/02/11 05:25:49;;;;;;;;;;;;;;;;;;5030377;28;19952;-89
2024/02/11 05:28:15;;;;;;;;;;;;;;;;;;5029915;28;19909;-91
2024/02/11 05:30:42;;;;;;;;;;;;;;;;;;5030055;28;20051;-90
2024/02/11 05:33:08;;;;;;;;;;;;;;;;;;5004506;28;19920;-90
2024/02/11 05:35:39;;;;;;;;;;;;;;;;;;5030587;28;19913;-90
2024/02/11 05:38:05;;;;;;;;;;;;;;;;;;5029932;28;20072;-91
2024/02/11 05:40:31;;;;;;;;;;;;;;;;;;5031284;28;19935;-90
2024/02/11 05:42:56;;;;;;;;;;;;;;;;;;5029542;28;19916;-91
2024/02/11 05:45:21;;;;;;;;;;;;;;;;;;5022749;28;19910;-90
2024/02/11 05:47:47;;;;;;;;;;;;;;;;;;5019229;28;19920;-90
2024/02/11 05:50:12;;;;;;;;;;;;;;;;;;5030840;28;19909;-90
2024/02/11 05:52:37;;;;;;;;;;;;;;;;;;5021009;28;20003;-90
2024/02/11 05:55:03;;;;;;;;;;;;;;;;;;5025749;28;19909;-89
2024/02/11 05:57:30;;;;;;;;;;;;;;;;;;5025807;28;20272;-91
2024/02/11 05:59:56;;;;;;;;;;;;;;;;;;5026031;28;19910;-90
2024/02/11 06:02:21;;;;;;;;;;;;;;;;;;5025022;28;19913;-88
2024/02/11 06:04:47;;;;;;;;;;;;;;;;;;5030734;28;19963;-90
2024/02/11 06:07:14;;;;;;;;;;;;;;;;;;5029778;28;19967;-82
2024/02/11 06:09:39;;;;;;;;;;;;;;;;;;5019436;28;20408;-82
2024/02/11 06:12:05;;;;;;;;;;;;;;;;;;5029229;28;19991;-82
2024/02/11 06:14:30;;;;;;;;;;;;;;;;;;5029794;28;19909;-81
2024/02/11 06:16:55;;;;;;;;;;;;;;;;;;5014164;28;19948;-84
2024/02/11 06:19:20;;;;;;;;;;;;;;;;;;5025277;28;19909;-84
2024/02/11 06:21:46;;;;;;;;;;;;;;;;;;5019969;28;19909;-84
2024/02/11 06:24:11;;;;;;;;;;;;;;;;;;5028962;28;20488;-83
2024/02/11 06:26:37;;;;;;;;;;;;;;;;;;5029776;28;20491;-86
2024/02/11 06:29:02;;;;;;;;;;;;;;;;;;5021810;28;19999;-83
2024/02/11 06:31:27;;;;;;;;;;;;;;;;;;5027806;28;19909;-84
2024/02/11 06:33:53;;;;;;;;;;;;;;;;;;5025081;28;20258;-85
2024/02/11 06:36:18;;;;;;;;;;;;;;;;;;5012695;28;20016;-84
2024/02/11 06:38:44;;;;;;;;;;;;;;;;;;5034193;28;19905;-84
2024/02/11 06:41:09;;;;;;;;;;;;;;;;;;5032665;28;20378;-84
2024/02/11 06:43:34;;;;;;;;;;;;;;;;;;5024328;28;19913;-84
2024/02/11 06:45:59;;;;;;;;;;;;;;;;;;5008491;28;19992;-84
2024/02/11 06:48:25;;;;;;;;;;;;;;;;;;5031479;28;20000;-82
2024/02/11 06:50:51;;;;;;;;;;;;;;;;;;5031564;28;19951;-83
2024/02/11 06:53:16;;;;;;;;;;;;;;;;;;5027402;28;19967;-82
2024/02/11 06:55:41;;;;;;;;;;;;;;;;;;5016909;28;19971;-82
2024/02/11 06:58:07;;;;;;;;;;;;;;;;;;5028344;28;20360;-83
2024/02/11 07:00:33;;;;;;;;;;;;;;;;;;5026659;28;19972;-84
2024/02/11 07:03:02;;;;;;;;;;;;;;;;;;5030736;28;20316;-83
2024/02/11 07:05:27;;;;;;;;;;;;;;;;;;5033172;28;20016;-83
2024/02/11 07:07:54;;;;;;;;;;;;;;;;;;5021915;28;19987;-82
2024/02/11 07:10:19;;;;;;;;;;;;;;;;;;5032119;28;19915;-83
2024/02/11 07:12:46;;;;;;;;;;;;;;;;;;5021336;28;20435;-82
2024/02/11 07:15:11;;;;;;;;;;;;;;;;;;5005011;28;19995;-81
2024/02/11 07:17:38;;;;;;;;;;;;;;;;;;5027531;28;20005;-85
2024/02/11 07:20:04;;;;;;;;;;;;;;;;;;5027073;28;19955;-83
2024/02/11 07:22:29;;;;;;;;;;;;;;;;;;5026503;28;20361;-84
2024/02/11 07:24:55;;;;;;;;;;;;;;;;;;5032624;28;19920;-85
2024/02/11 07:27:20;;;;;;;;;;;;;;;;;;5032003;28;19913;-85
2024/02/11 07:29:45;;;;;;;;;;;;;;;;;;5032308;28;19928;-86
2024/02/11 07:32:11;;;;;;;;;;;;;;;;;;5014365;28;19909;-84
2024/02/11 07:34:37;;;;;;;;;;;;;;;;;;5021330;28;19936;-85
2024/02/11 07:37:02;;;;;;;;;;;;;;;;;;5024862;28;20293;-85
2024/02/11 07:39:27;;;;;;;;;;;;;;;;;;5029020;28;19951;-85
2024/02/11 07:41:53;;;;;;;;;;;;;;;;;;5036417;28;19919;-82
2024/02/11 07:44:19;;;;;;;;;;;;;;;;;;5031814;28;19920;-84
2024/02/11 07:46:44;;;;;;;;;;;;;;;;;;5031467;28;20296;-83
2024/02/11 07:49:13;;;;;;;;;;;;;;;;;;5031162;28;19909;-84
2024/02/11 07:51:44;;;;;;;;;;;;;;;;;;5034689;28;20462;-82
2024/02/11 07:54:09;;;;;;;;;;;;;;;;;;5035481;28;19952;-83
2024/02/11 07:56:35;;;;;;;;;;;;;;;;;;5031566;28;19948;-83
2024/02/11 07:59:00;;;;;;;;;;;;;;;;;;5022077;28;20013;-83
2024/02/11 08:01:25;;;;;;;;;;;;;;;;;;5028907;28;19917;-83
2024/02/11 08:03:53;;;;;;;;;;;;;;;;;;5023849;28;19908;-82
2024/02/11 08:06:18;;;;;;;;;;;;;;;;;;5029253;28;19960;-81
2024/02/11 08:08:43;;;;;;;;;;;;;;;;;;5031942;28;19948;-81
2024/02/11 08:11:09;;;;;;;;;;;;;;;;;;5031623;28;20296;-81
2024/02/11 08:13:34;;;;;;;;;;;;;;;;;;5010912;28;19955;-81
2024/02/11 08:15:59;;;;;;;;;;;;;;;;;;5015840;28;19909;-81
2024/02/11 08:18:24;;;;;;;;;;;;;;;;;;5025675;28;19909;-83
2024/02/11 08:20:50;;;;;;;;;;;;;;;;;;5025541;28;19909;-82
2024/02/11 08:23:15;;;;;;;;;;;;;;;;;;5030582;28;19917;-82
2024/02/11 08:25:40;;;;;;;;;;;;;;;;;;5033032;28;19915;-89
2024/02/11 08:28:07;;;;;;;;;;;;;;;;;;5039312;28;21224;-87
2024/02/11 08:30:32;;;;;;;;;;;;;;;;;;5025484;28;19941;-90
2024/02/11 08:32:58;;;;;;;;;;;;;;;;;;5034645;28;19948;-91
2024/02/11 08:35:23;;;;;;;;;;;;;;;;;;5047175;28;19897;-91
2024/02/11 08:37:48;;;;;;;;;;;;;;;;;;5042108;28;19931;-92
2024/02/11 08:40:13;;;;;;;;;;;;;;;;;;5045279;28;20269;-90
2024/02/11 08:42:39;;;;;;;;;;;;;;;;;;5041760;28;19909;-89
2024/02/11 08:45:04;;;;;;;;;;;;;;;;;;5041060;28;19956;-89
2024/02/11 08:47:29;;;;;;;;;;;;;;;;;;5036981;28;19916;-89
2024/02/11 08:49:54;;;;;;;;;;;;;;;;;;5037192;28;19917;-91
2024/02/11 08:52:19;;;;;;;;;;;;;;;;;;5039864;28;19942;-90
2024/02/11 08:54:45;;;;;;;;;;;;;;;;;;5032431;28;19982;-90
2024/02/11 08:57:10;;;;;;;;;;;;;;;;;;5038889;28;19909;-88
2024/02/11 08:59:35;;;;;;;;;;;;;;;;;;5037451;28;19917;-85
2024/02/11 09:02:01;;;;;;;;;;;;;;;;;;5039781;28;19995;-91
2024/02/11 09:04:27;;;;;;;;;;;;;;;;;;5047629;28;19972;-91
2024/02/11 09:06:55;;;;;;;;;;;;;;;;;;5034387;28;19940;-90
2024/02/11 09:09:26;;;;;;;;;;;;;;;;;;5042073;28;19916;-91
2024/02/11 09:11:52;;;;;;;;;;;;;;;;;;5016855;28;19908;-90
2024/02/11 09:14:17;;;;;;;;;;;;;;;;;;5034229;28;19913;-90
2024/02/11 09:16:42;;;;;;;;;;;;;;;;;;5036358;28;19909;-88
2024/02/11 09:19:08;;;;;;;;;;;;;;;;;;5039231;28;19909;-90
2024/02/11 09:21:33;;;;;;;;;;;;;;;;;;5033943;28;19909;-90
2024/02/11 09:23:58;;;;;;;;;;;;;;;;;;5037842;28;19927;-90
2024/02/11 09:26:23;;;;;;;;;;;;;;;;;;5038249;28;19919;-88
2024/02/11 09:28:48;;;;;;;;;;;;;;;;;;5042051;28;19979;-88
2024/02/11 09:31:13;;;;;;;;;;;;;;;;;;5040209;28;20022;-90
2024/02/11 09:33:38;;;;;;;;;;;;;;;;;;5039501;28;19913;-89
2024/02/11 09:36:03;;;;;;;;;;;;;;;;;;5034749;28;19913;-91
2024/02/11 09:38:29;;;;;;;;;;;;;;;;;;5035651;28;19955;-90
2024/02/11 09:40:54;;;;;;;;;;;;;;;;;;5037980;28;19955;-90
2024/02/11 09:43:20;;;;;;;;;;;;;;;;;;5030072;28;19920;-87
2024/02/11 09:45:47;;;;;;;;;;;;;;;;;;5031478;28;19917;-87
2024/02/11 09:48:12;;;;;;;;;;;;;;;;;;5035937;28;19913;-87
2024/02/11 09:50:37;;;;;;;;;;;;;;;;;;5028956;28;20000;-91
2024/02/11 09:53:03;;;;;;;;;;;;;;;;;;5038881;28;19954;-91
2024/02/11 09:55:28;;;;;;;;;;;;;;;;;;5031107;28;20051;-90
2024/02/11 09:57:54;;;;;;;;;;;;;;;;;;5034840;28;19909;-89
2024/02/11 10:00:20;;;;;;;;;;;;;;;;;;5030003;28;19916;-89
2024/02/11 10:02:45;;;;;;;;;;;;;;;;;;5031441;28;19920;-90
2024/02/11 10:05:11;;;;;;;;;;;;;;;;;;5030067;28;20285;-89
2024/02/11 10:07:36;;;;;;;;;;;;;;;;;;5037157;28;19934;-91
2024/02/11 10:10:03;;;;;;;;;;;;;;;;;;5037812;28;19909;-90
2024/02/11 10:12:28;;;;;;;;;;;;;;;;;;5040147;28;19967;-89
2024/02/11 10:14:53;;;;;;;;;;;;;;;;;;5032849;28;20361;-90
2024/02/11 10:17:19;;;;;;;;;;;;;;;;;;5034458;28;19909;-89
2024/02/11 10:19:44;;;;;;;;;;;;;;;;;;5037605;28;20366;-91
2024/02/11 10:22:10;;;;;;;;;;;;;;;;;;5042660;28;19932;-89
2024/02/11 10:24:35;;;;;;;;;;;;;;;;;;5012752;28;19984;-90
2024/02/11 10:27:00;;;;;;;;;;;;;;;;;;5007101;28;19959;-88
2024/02/11 10:29:25;;;;;;;;;;;;;;;;;;5018616;28;19917;-90
2024/02/11 10:31:50;;;;;;;;;;;;;;;;;;5019940;28;20324;-90
2024/02/11 10:34:16;;;;;;;;;;;;;;;;;;5020762;28;19909;-89
2024/02/11 10:36:41;;;;;;;;;;;;;;;;;;5017118;28;20275;-89
2024/02/11 10:39:06;;;;;;;;;;;;;;;;;;5023514;28;20470;-88
2024/02/11 10:41:31;;;;;;;;;;;;;;;;;;5009414;28;20357;-82
2024/02/11 10:43:56;;;;;;;;;;;;;;;;;;5012595;28;19910;-82
2024/02/11 10:46:22;;;;;;;;;;;;;;;;;;5008162;28;19917;-82
2024/02/11 10:48:48;;;;;;;;;;;;;;;;;;5022337;28;20368;-84
2024/02/11 10:51:14;;;;;;;;;;;;;;;;;;5011352;28;20048;-84
2024/02/11 10:53:39;;;;;;;;;;;;;;;;;;5013921;28;20369;-85
2024/02/11 10:56:04;;;;;;;;;;;;;;;;;;5020203;28;19916;-82
2024/02/11 10:58:30;;;;;;;;;;;;;;;;;;5016723;28;19909;-83
2024/02/11 11:00:55;;;;;;;;;;;;;;;;;;5018513;28;19963;-84
2024/02/11 11:03:26;;;;;;;;;;;;;;;;;;5018281;28;19916;-84
2024/02/11 11:05:51;;;;;;;;;;;;;;;;;;4994976;28;19941;-85
2024/02/11 11:08:19;;;;;;;;;;;;;;;;;;5021049;28;20272;-85
2024/02/11 11:10:44;;;;;;;;;;;;;;;;;;5022788;28;20293;-85
2024/02/11 11:13:09;;;;;;;;;;;;;;;;;;5015613;28;20259;-85
2024/02/11 11:15:34;;;;;;;;;;;;;;;;;;5012718;28;20346;-85
2024/02/11 11:17:59;;;;;;;;;;;;;;;;;;5013414;28;19910;-85
2024/02/11 11:20:24;;;;;;;;;;;;;;;;;;5013465;28;19909;-84
2024/02/11 11:22:50;;;;;;;;;;;;;;;;;;4998332;28;19921;-85
2024/02/11 11:25:15;;;;;;;;;;;;;;;;;;5016252;28;20008;-85
2024/02/11 11:27:41;;;;;;;;;;;;;;;;;;5014873;28;19960;-85
2024/02/11 11:30:07;;;;;;;;;;;;;;;;;;5018021;28;19905;-85
2024/02/11 11:32:33;;;;;;;;;;;;;;;;;;5017624;28;20285;-85
2024/02/11 11:34:59;;;;;;;;;;;;;;;;;;5022145;28;19996;-85
2024/02/11 11:37:24;;;;;;;;;;;;;;;;;;5014930;28;19970;-84
2024/02/11 11:39:50;;;;;;;;;;;;;;;;;;5015308;28;20366;-90
2024/02/11 11:42:17;;;;;;;;;;;;;;;;;;5009143;28;19921;-89
2024/02/11 11:44:42;;;;;;;;;;;;;;;;;;5006401;28;20286;-89
2024/02/11 11:47:07;;;;;;;;;;;;;;;;;;5013489;28;19928;-89
2024/02/11 11:49:34;;;;;;;;;;;;;;;;;;5012694;28;20191;-91
2024/02/11 11:51:59;;;;;;;;;;;;;;;;;;5011739;28;20463;-90
2024/02/11 11:54:24;;;;;;;;;;;;;;;;;;5020735;28;19913;-91
2024/02/11 11:56:49;;;;;;;;;;;;;;;;;;5017470;28;20381;-85
2024/02/11 11:59:14;;;;;;;;;;;;;;;;;;5008926;28;19976;-84
2024/02/11 12:01:40;;;;;;;;;;;;;;;;;;5008018;28;20352;-85
2024/02/11 12:04:05;;;;;;;;;;;;;;;;;;4995769;28;19924;-84
2024/02/11 12:06:30;;;;;;;;;;;;;;;;;;4982295;28;20321;-85
2024/02/11 12:08:56;;;;;;;;;;;;;;;;;;5004425;28;20004;-84
2024/02/11 12:11:21;;;;;;;;;;;;;;;;;;5008264;28;20400;-84
2024/02/11 12:13:46;;;;;;;;;;;;;;;;;;5007920;28;19916;-82
2024/02/11 12:16:16;;;;;;;;;;;;;;;;;;5017336;28;20045;-83
2024/02/11 12:18:41;;;;;;;;;;;;;;;;;;5010772;28;20255;-82
2024/02/11 12:21:07;;;;;;;;;;;;;;;;;;5016768;28;19919;-82
2024/02/11 12:23:33;;;;;;;;;;;;;;;;;;5023174;28;19917;-83
2024/02/11 12:26:06;;;;;;;;;;;;;;;;;;5013625;28;20386;-83
2024/02/11 12:28:31;;;;;;;;;;;;;;;;;;5013367;28;19995;-83
2024/02/11 12:30:56;;;;;;;;;;;;;;;;;;4996197;28;19913;-83
2024/02/11 12:33:22;;;;;;;;;;;;;;;;;;5008247;28;20381;-83
2024/02/11 12:35:47;;;;;;;;;;;;;;;;;;5013310;28;20027;-83
2024/02/11 12:38:13;;;;;;;;;;;;;;;;;;4998904;28;19913;-85
2024/02/11 12:40:38;;;;;;;;;;;;;;;;;;4989591;28;19921;-83
2024/02/11 12:43:04;;;;;;;;;;;;;;;;;;5011351;28;20400;-83
2024/02/11 12:45:29;;;;;;;;;;;;;;;;;;5020045;28;20374;-84
2024/02/11 12:47:54;;;;;;;;;;;;;;;;;;5023150;28;20422;-84
2024/02/11 12:50:22;;;;;;;;;;;;;;;;;;5016354;28;20397;-85
2024/02/11 12:52:48;;;;;;;;;;;;;;;;;;5011705;28;19913;-85
2024/02/11 12:55:13;;;;;;;;;;;;;;;;;;5001824;28;20286;-85
2024/02/11 12:57:38;;;;;;;;;;;;;;;;;;4989182;28;20369;-84
2024/02/11 13:00:04;;;;;;;;;;;;;;;;;;5011360;28;20526;-86
2024/02/11 13:02:29;;;;;;;;;;;;;;;;;;5018353;28;20436;-85
2024/02/11 13:04:55;;;;;;;;;;;;;;;;;;5006440;28;19913;-86
2024/02/11 13:07:20;;;;;;;;;;;;;;;;;;5019453;28;19921;-89
2024/02/11 13:09:45;;;;;;;;;;;;;;;;;;5012547;28;19936;-89
2024/02/11 13:12:10;;;;;;;;;;;;;;;;;;5013086;28;19933;-89
2024/02/11 13:14:35;;;;;;;;;;;;;;;;;;5010635;28;19913;-89
2024/02/11 13:17:00;;;;;;;;;;;;;;;;;;4993028;28;19920;-90
2024/02/11 13:19:25;;;;;;;;;;;;;;;;;;5006463;28;19925;-89
2024/02/11 13:21:51;;;;;;;;;;;;;;;;;;5009015;28;19913;-91
2024/02/11 13:24:16;;;;;;;;;;;;;;;;;;5019103;28;19924;-89
2024/02/11 13:26:41;;;;;;;;;;;;;;;;;;5018699;28;19916;-90
2024/02/11 13:29:06;;;;;;;;;;;;;;;;;;5028578;28;19913;-90
2024/02/11 13:31:33;;;;;;;;;;;;;;;;;;5016339;28;19913;-91
2024/02/11 13:33:59;;;;;;;;;;;;;;;;;;5041579;28;19916;-90
2024/02/11 13:36:27;;;;;;;;;;;;;;;;;;5018177;28;20408;-91
2024/02/11 13:38:52;;;;;;;;;;;;;;;;;;5031005;28;19913;-90
2024/02/11 13:41:18;;;;;;;;;;;;;;;;;;5036512;28;20380;-88
2024/02/11 13:43:43;;;;;;;;;;;;;;;;;;5029637;28;19909;-89
2024/02/11 13:46:12;;;;;;;;;;;;;;;;;;5025597;28;19913;-89
2024/02/11 13:48:37;;;;;;;;;;;;;;;;;;5032353;28;19909;-88
2024/02/11 13:51:02;;;;;;;;;;;;;;;;;;5030411;28;19962;-88
2024/02/11 13:53:27;;;;;;;;;;;;;;;;;;5031250;28;19913;-88
2024/02/11 13:55:53;;;;;;;;;;;;;;;;;;5017139;28;20011;-89
2024/02/11 13:58:18;;;;;;;;;;;;;;;;;;5032734;28;19919;-88
2024/02/11 14:00:43;;;;;;;;;;;;;;;;;;5028814;28;20400;-88
2024/02/11 14:03:09;;;;;;;;;;;;;;;;;;5024893;28;20364;-88
2024/02/11 14:05:35;;;;;;;;;;;;;;;;;;5020151;28;19915;-88
2024/02/11 14:08:03;;;;;;;;;;;;;;;;;;5029671;28;19921;-85
2024/02/11 14:10:28;;;;;;;;;;;;;;;;;;5021573;28;20008;-85
2024/02/11 14:12:54;;;;;;;;;;;;;;;;;;5027984;28;20047;-88
2024/02/11 14:15:19;;;;;;;;;;;;;;;;;;5024558;28;19913;-85
2024/02/11 14:17:48;;;;;;;;;;;;;;;;;;5029816;28;20063;-85
2024/02/11 14:20:13;;;;;;;;;;;;;;;;;;5028001;28;19921;-86
2024/02/11 14:22:39;;;;;;;;;;;;;;;;;;5026551;28;19913;-86
2024/02/11 14:25:05;;;;;;;;;;;;;;;;;;5030196;28;20344;-85
2024/02/11 14:27:30;;;;;;;;;;;;;;;;;;5030368;28;20311;-85
2024/02/11 14:29:55;;;;;;;;;;;;;;;;;;5025966;28;20367;-85
2024/02/11 14:32:21;;;;;;;;;;;;;;;;;;5024245;28;19982;-85
2024/02/11 14:34:48;;;;;;;;;;;;;;;;;;5010503;28;19913;-85
2024/02/11 14:37:14;;;;;;;;;;;;;;;;;;5031116;28;20380;-85
2024/02/11 14:39:39;;;;;;;;;;;;;;;;;;5024637;28;19913;-85
2024/02/11 14:42:06;;;;;;;;;;;;;;;;;;5031263;28;19923;-85
2024/02/11 14:44:32;;;;;;;;;;;;;;;;;;5043071;28;19908;-87
2024/02/11 14:46:57;;;;;;;;;;;;;;;;;;5053908;28;19912;-86
2024/02/11 14:49:24;;;;;;;;;;;;;;;;;;5053161;28;19896;-87
2024/02/11 14:51:49;;;;;;;;;;;;;;;;;;5032267;28;19917;-85
2024/02/11 14:54:15;;;;;;;;;;;;;;;;;;5046698;28;19923;-86
2024/02/11 14:59:28;;;;;;;;;;;;;;;;;;5050989;28;19944;-86
2024/02/11 15:01:53;;;;;;;;;;;;;;;;;;5056641;28;19997;-85
2024/02/11 15:04:18;;;;;;;;;;;;;;;;;;5062386;28;19901;-87
2024/02/11 15:06:43;;;;;;;;;;;;;;;;;;5048372;28;19913;-86
2024/02/11 15:09:09;;;;;;;;;;;;;;;;;;5050665;28;19963;-85
2024/02/11 15:11:35;;;;;;;;;;;;;;;;;;5047971;28;19924;-86
2024/02/11 15:14:00;;;;;;;;;;;;;;;;;;5044930;28;19913;-86
2024/02/11 15:16:25;;;;;;;;;;;;;;;;;;5046456;28;19981;-85
2024/02/11 15:18:50;;;;;;;;;;;;;;;;;;5055582;28;19951;-86
2024/02/11 15:21:16;;;;;;;;;;;;;;;;;;5043689;28;20262;-85
2024/02/11 15:23:41;;;;;;;;;;;;;;;;;;5023376;28;19929;-86
2024/02/11 15:26:06;;;;;;;;;;;;;;;;;;5006292;28;19923;-88
2024/02/11 15:28:32;;;;;;;;;;;;;;;;;;5017326;28;20277;-90
2024/02/11 15:30:57;;;;;;;;;;;;;;;;;;5039709;28;19936;-89
2024/02/11 15:33:23;;;;;;;;;;;;;;;;;;5031411;28;19918;-90
2024/02/11 15:35:48;;;;;;;;;;;;;;;;;;5029498;28;20249;-89
2024/02/11 15:38:13;;;;;;;;;;;;;;;;;;5017476;28;19905;-89
2024/02/11 15:40:39;;;;;;;;;;;;;;;;;;5016413;28;19909;-88
2024/02/11 15:43:04;;;;;;;;;;;;;;;;;;5023347;28;19905;-88
2024/02/11 15:45:29;;;;;;;;;;;;;;;;;;5016790;28;19916;-88
2024/02/11 15:47:55;;;;;;;;;;;;;;;;;;5023237;28;19924;-89
2024/02/11 15:50:21;;;;;;;;;;;;;;;;;;4996610;28;19924;-89
2024/02/11 15:52:46;;;;;;;;;;;;;;;;;;5017279;28;19916;-89
2024/02/11 15:55:11;;;;;;;;;;;;;;;;;;5014176;28;19920;-90
2024/02/11 15:57:38;;;;;;;;;;;;;;;;;;5012434;28;19913;-89
2024/02/11 16:00:03;;;;;;;;;;;;;;;;;;5014856;28;19913;-89
2024/02/11 16:02:28;;;;;;;;;;;;;;;;;;5012594;28;19924;-90
2024/02/11 16:04:54;;;;;;;;;;;;;;;;;;5015951;28;19913;-90
2024/02/11 16:07:19;;;;;;;;;;;;;;;;;;5013189;28;19913;-90
2024/02/11 16:09:44;;;;;;;;;;;;;;;;;;5010926;28;20439;-90
2024/02/11 16:12:10;;;;;;;;;;;;;;;;;;5019042;28;20423;-90
2024/02/11 16:14:35;;;;;;;;;;;;;;;;;;5015473;28;20209;-89
2024/02/11 16:17:00;;;;;;;;;;;;;;;;;;5010422;28;19913;-91
2024/02/11 16:19:26;;;;;;;;;;;;;;;;;;5013135;28;19913;-90
2024/02/11 16:21:51;;;;;;;;;;;;;;;;;;5019116;28;20293;-89
2024/02/11 16:24:16;;;;;;;;;;;;;;;;;;5011473;28;20444;-89
2024/02/11 16:26:43;;;;;;;;;;;;;;;;;;5016800;28;20404;-91
2024/02/11 16:29:08;;;;;;;;;;;;;;;;;;5014624;28;20281;-91
2024/02/11 16:31:33;;;;;;;;;;;;;;;;;;5015028;28;19913;-88
2024/02/11 16:33:58;;;;;;;;;;;;;;;;;;5008420;28;19936;-89
2024/02/11 16:36:24;;;;;;;;;;;;;;;;;;5014981;28;20318;-85